ADDS TAF Board (Experimental) INFO Settings
IDs: Format: Expanded Condensed

KPDX - Portland Intl Arpt, OR, US

Issued at 1500 UTC 25 Jun 2016
Updated at: 1551 UTC 25 Jun 2016
Time1453Z 25/16Z 25/17Z 25/18Z 25/19Z 25/20Z 25/21Z 25/22Z 25/23Z 26/00Z 26/01Z 26/02Z 26/03Z 26/04Z
Type OBS PRVL PRVL PRVL PRVL PRVL PRVL PRVL PRVL PRVL PRVL PRVL PRVL PRVL
VIS 10 >6 >6 >6 >6 >6 >6 >6 >6 >6 >6 >6 >6 >6
CIG -- -- -- -- -- -- -- -- -- -- -- -- -- --
Cover FEW SKC SKC SKC SKC SKC SKC SKC SKC SKC SKC SKC SKC SKC
FltCat VFR VFR VFR VFR VFR VFR VFR VFR VFR VFR VFR VFR VFR VFR
WX -- -- -- -- -- -- -- -- -- -- -- -- -- --
WDir 320 300 300 300 300 300 310 310 310 310 310 310 310 310
WSpd 3 4 4 4 4 4 9 9 9 9 9 9 9 9
WGst -- -- -- -- -- -- -- -- -- -- -- -- -- --
R03/21
XWnd 3 4 4 4 4 4 9 9 9 9 9 9 9 9
HWnd 0 -1 -1 -1 -1 -1 -1 -1 -1 -1 -1 -1 -1 -1
R10/28
XWnd 1 0 0 0 0 0 2 2 2 2 2 2 2 2
HWnd -3 -4 -4 -4 -4 -4 -9 -9 -9 -9 -9 -9 -9 -9

NOTE: TEMPO conditions in [brackets]. Keep in mind TEMPO conditions might be better (lower impact) than prevailing conditions.

Raw TAF
KPDX 251500Z 2515/2612 33004KT P6SM SCT007
  FM251600 30004KT P6SM SKC
  FM252100 31009KT P6SM SKC
  FM260700 32005KT P6SM SKC


Raw METAR
KPDX 251453Z 32003KT 10SM FEW010 FEW250 13/10 A3027 RMK AO2 SLP249 T01330100 58001
KPDX 251353Z 32005KT 10SM FEW007 FEW250 12/10 A3027 RMK AO2 SLP250 T01170100
KPDX 251253Z 08003KT 10SM SCT007 BKN250 11/09 A3027 RMK AO2 SLP250 T01060094

METAR Board
Radar Display
Forecast Discussion

TAF Board Legend

Potential Impact
Threat None Slight Moderate High
Visibility (sm) ≥5.1 5.1>X≥3 3>X≥1 <1
Ceiling (100 ft) ≥30.1 30.1>X≥10 10>X≥5 <5
Wind Speed (kt) <10 10≤X<20 20≤X<30 ≥30
Wind Gust (kt) <15 15≤X<25 25≤X<35 ≥35
Weather No Wx Reported VCTS,-TS,-FZRA,SN TS,FZRA +TS,+FZRA,+SN